Terminal Aerodrome Forecast
Issued by NWS Detroit/Pontiac, MI

Home | Current Version | Previous Version | Text Only | Print | Product List | Glossary On
Versions: 1 2 3 4 5 6 7 8 9 10 11 12 13 14 15 16 17 18 19 20 21 22 23 24 25 26 27 28 29 30
000
FTUS43 KDTX 040527
TAFDTW
TAF
KDTW 040527Z 0406/0512 15004KT 6SM BR SCT006 BKN045
     FM040800 17004KT 3SM BR SCT006 OVC035
     FM041000 17003KT 1SM BR SCT004 BKN035
     FM041400 17006KT P6SM BKN025
     FM041800 17007KT P6SM BKN035
     FM050300 15003KT P6SM BKN040
     FM050800 VRB02KT 4SM BR BKN040=

USA.gov is the U.S. government's official web portal to all federal, state and local government web resources and services.